createdAt,value
2017-08-12T00:00:53.985Z,87.9
2017-08-12T00:01:55.384Z,87.9
2017-08-12T00:02:56.781Z,88.3
2017-08-12T00:03:58.176Z,88.2
2017-08-12T00:04:59.577Z,88.6
2017-08-12T00:06:00.974Z,88.9
2017-08-12T00:07:02.370Z,88.9
2017-08-12T00:08:03.768Z,89.2
2017-08-12T00:09:05.166Z,89.5
2017-08-12T00:10:06.567Z,89.8
2017-08-12T00:11:07.966Z,90.1
2017-08-12T00:12:09.361Z,89.7
2017-08-12T00:13:10.760Z,89.3
2017-08-12T00:14:12.154Z,89.6
2017-08-12T00:15:13.549Z,89.2
2017-08-12T00:16:14.949Z,89.7
2017-08-12T00:17:16.350Z,89.4
2017-08-12T00:18:17.746Z,89.3
2017-08-12T00:19:19.143Z,89.5
2017-08-12T00:20:20.542Z,89.5
2017-08-12T00:21:21.942Z,89.3
2017-08-12T00:22:23.337Z,89.2
2017-08-12T00:23:24.740Z,89.2
2017-08-12T00:24:26.138Z,89.8
2017-08-12T00:25:27.539Z,89.2
2017-08-12T00:26:28.931Z,89.7
2017-08-12T00:27:30.325Z,90.0
2017-08-12T00:28:31.728Z,89.7
2017-08-12T00:29:33.126Z,90.2
2017-08-12T00:30:34.525Z,89.9
2017-08-12T00:31:35.921Z,89.6
2017-08-12T00:32:37.317Z,89.7
2017-08-12T00:33:38.712Z,89.2
2017-08-12T00:34:40.108Z,89.3
2017-08-12T00:35:41.504Z,89.1
2017-08-12T00:36:42.903Z,89.6
2017-08-12T00:37:44.303Z,88.9
2017-08-12T00:38:45.699Z,89.0
2017-08-12T00:39:47.097Z,89.0
2017-08-12T00:40:48.494Z,89.0
2017-08-12T00:41:49.892Z,88.2
2017-08-12T00:42:51.286Z,87.8
2017-08-12T00:43:52.688Z,87.8
2017-08-12T00:44:54.105Z,87.8
2017-08-12T00:45:55.481Z,87.7
2017-08-12T00:46:56.878Z,87.1
2017-08-12T00:47:58.275Z,87.0
2017-08-12T00:48:59.672Z,87.2
2017-08-12T00:50:01.067Z,87.0
2017-08-12T00:51:02.467Z,87.2
2017-08-12T00:52:03.870Z,86.6
2017-08-12T00:53:05.271Z,86.3
2017-08-12T00:54:06.665Z,85.7
2017-08-12T00:55:08.062Z,86.2
2017-08-12T00:56:09.459Z,84.6
2017-08-12T00:57:10.857Z,85.6
2017-08-12T00:58:12.252Z,85.2
2017-08-12T00:59:13.655Z,85.5
2017-08-12T01:00:15.055Z,85.6
2017-08-12T01:01:16.449Z,84.9
2017-08-12T01:02:17.843Z,85.3
2017-08-12T01:03:19.239Z,84.9
2017-08-12T01:04:20.636Z,84.9
2017-08-12T01:05:22.033Z,84.4
2017-08-12T01:06:23.431Z,84.1
2017-08-12T01:07:24.832Z,83.7
2017-08-12T01:08:26.224Z,82.2
2017-08-12T01:09:27.621Z,82.0
2017-08-12T01:10:29.017Z,82.0
2017-08-12T01:11:30.455Z,80.7
2017-08-12T01:12:31.853Z,80.8
2017-08-12T01:13:33.254Z,80.3
2017-08-12T01:14:34.652Z,80.1
2017-08-12T01:15:36.048Z,80.3
2017-08-12T01:16:37.440Z,80.0
2017-08-12T01:17:38.839Z,80.3
2017-08-12T01:18:42.220Z,80.0
2017-08-12T01:19:43.616Z,80.3
2017-08-12T01:20:45.015Z,80.0
2017-08-12T01:21:46.414Z,80.3
2017-08-12T01:22:47.808Z,79.6
2017-08-12T01:23:49.205Z,80.3
2017-08-12T01:24:50.603Z,78.9
2017-08-12T01:25:52.000Z,78.2
2017-08-12T01:26:53.397Z,77.4
2017-08-12T01:27:54.798Z,77.9
2017-08-12T01:28:56.199Z,77.6
2017-08-12T01:29:57.593Z,77.0
2017-08-12T01:30:58.988Z,76.9
2017-08-12T01:32:00.380Z,77.2
2017-08-12T01:33:01.782Z,76.6
2017-08-12T01:34:03.181Z,77.4
2017-08-12T01:35:04.580Z,77.5
2017-08-12T01:36:05.974Z,77.9
2017-08-12T01:37:07.373Z,77.9
2017-08-12T01:38:08.771Z,78.2
2017-08-12T01:39:10.169Z,78.5
2017-08-12T01:40:11.564Z,78.1
2017-08-12T01:41:12.980Z,78.1
2017-08-12T01:42:17.229Z,78.4
2017-08-12T01:43:18.623Z,79.0
2017-08-12T01:44:20.021Z,77.9
2017-08-12T01:45:21.431Z,79.1
2017-08-12T01:46:22.820Z,78.2
2017-08-12T01:47:24.220Z,78.2
2017-08-12T01:48:25.625Z,78.9
2017-08-12T01:49:27.021Z,78.8
2017-08-12T01:50:28.419Z,79.7
2017-08-12T01:51:29.811Z,79.2
2017-08-12T01:52:31.207Z,79.4
2017-08-12T01:53:32.603Z,79.6
2017-08-12T01:54:34.026Z,79.4
2017-08-12T01:55:35.420Z,79.3
2017-08-12T01:56:36.820Z,79.5
2017-08-12T01:57:38.218Z,79.7
2017-08-12T01:58:39.612Z,79.7
2017-08-12T01:59:41.005Z,79.4
2017-08-12T02:00:42.401Z,79.4
2017-08-12T02:01:43.798Z,79.5
2017-08-12T02:02:45.195Z,79.9
2017-08-12T02:03:46.592Z,80.2
2017-08-12T02:04:47.991Z,80.2
2017-08-12T02:05:49.384Z,79.6
2017-08-12T02:06:50.782Z,80.3
2017-08-12T02:07:52.180Z,79.7
2017-08-12T02:08:55.240Z,79.7
2017-08-12T02:09:56.636Z,80.1
2017-08-12T02:10:58.036Z,80.1
2017-08-12T02:11:59.432Z,80.2
2017-08-12T02:13:00.829Z,80.1
2017-08-12T02:14:02.228Z,79.9
2017-08-12T02:15:03.628Z,79.7
2017-08-12T02:16:05.023Z,79.9
2017-08-12T02:17:06.421Z,79.9
2017-08-12T02:18:07.816Z,80.8
2017-08-12T02:19:09.215Z,80.3
2017-08-12T02:20:10.610Z,81.1
2017-08-12T02:21:12.005Z,80.5
2017-08-12T02:22:13.403Z,80.5
2017-08-12T02:23:16.735Z,80.7
2017-08-12T02:24:18.134Z,81.0
2017-08-12T02:25:19.532Z,80.5
2017-08-12T02:26:20.931Z,80.6
2017-08-12T02:27:22.325Z,81.0
2017-08-12T02:28:23.718Z,80.9
2017-08-12T02:29:25.117Z,81.1
2017-08-12T02:30:26.515Z,80.9
2017-08-12T02:31:27.915Z,81.1
2017-08-12T02:32:29.311Z,81.5
2017-08-12T02:33:30.709Z,81.4
2017-08-12T02:34:32.101Z,81.4
2017-08-12T02:35:33.498Z,81.3
2017-08-12T02:36:34.891Z,81.4
2017-08-12T02:37:36.285Z,82.0
2017-08-12T02:38:37.686Z,82.1
2017-08-12T02:39:39.077Z,82.2
2017-08-12T02:40:40.477Z,82.2
2017-08-12T02:41:41.870Z,81.4
2017-08-12T02:42:43.266Z,81.4
2017-08-12T02:43:44.665Z,82.2
2017-08-12T02:44:46.067Z,81.7
2017-08-12T02:45:47.458Z,81.7
2017-08-12T02:46:48.855Z,82.0
2017-08-12T02:47:50.252Z,81.7
2017-08-12T02:48:51.645Z,82.2
2017-08-12T02:49:53.042Z,81.9
2017-08-12T02:50:54.436Z,81.9
2017-08-12T02:51:55.836Z,82.2
2017-08-12T02:52:57.236Z,82.0
2017-08-12T02:53:58.634Z,82.0
2017-08-12T02:55:00.034Z,82.2
2017-08-12T02:56:01.426Z,82.4
2017-08-12T02:57:02.823Z,82.0
2017-08-12T02:58:04.222Z,81.9
2017-08-12T02:59:05.614Z,82.1
2017-08-12T03:00:07.012Z,82.2
2017-08-12T03:01:08.410Z,82.5
2017-08-12T03:02:09.808Z,82.6
2017-08-12T03:03:11.203Z,82.0
2017-08-12T03:04:12.598Z,82.4
2017-08-12T03:05:13.995Z,82.7
2017-08-12T03:06:15.388Z,82.3
2017-08-12T03:07:16.783Z,82.9
2017-08-12T03:08:18.179Z,82.8
2017-08-12T03:09:19.575Z,82.8
2017-08-12T03:10:20.967Z,82.5
2017-08-12T03:11:22.363Z,83.1
2017-08-12T03:12:25.743Z,83.2
2017-08-12T03:13:27.140Z,82.5
2017-08-12T03:14:28.537Z,82.3
2017-08-12T03:15:29.935Z,82.3
2017-08-12T03:16:31.332Z,82.3
2017-08-12T03:17:32.729Z,82.5
2017-08-12T03:18:34.121Z,83.0
2017-08-12T03:19:35.514Z,83.3
2017-08-12T03:20:36.911Z,83.3
2017-08-12T03:21:38.309Z,83.1
2017-08-12T03:22:39.707Z,83.2
2017-08-12T03:23:41.104Z,83.1
2017-08-12T03:24:42.499Z,83.1
2017-08-12T03:25:43.896Z,82.8
2017-08-12T03:26:45.291Z,82.9
2017-08-12T03:27:46.691Z,82.9
2017-08-12T03:28:49.748Z,82.9
2017-08-12T03:29:51.148Z,83.8
2017-08-12T03:30:52.547Z,83.8
2017-08-12T03:31:53.942Z,83.8
2017-08-12T03:32:55.336Z,83.8
2017-08-12T03:33:56.731Z,84.0
2017-08-12T03:34:58.130Z,83.8
2017-08-12T03:35:59.521Z,84.0
2017-08-12T03:37:00.920Z,84.3
2017-08-12T03:38:02.327Z,84.7
2017-08-12T03:39:03.722Z,84.8
2017-08-12T03:40:05.116Z,84.5
2017-08-12T03:41:06.513Z,84.7
2017-08-12T03:42:07.907Z,84.3
2017-08-12T03:43:09.303Z,84.4
2017-08-12T03:44:10.700Z,84.6
2017-08-12T03:45:12.098Z,84.2
2017-08-12T03:46:13.491Z,84.2
2017-08-12T03:47:14.885Z,84.6
2017-08-12T03:48:16.283Z,84.6
2017-08-12T03:49:17.676Z,84.6
2017-08-12T03:50:19.074Z,85.5
2017-08-12T03:51:20.471Z,85.0
2017-08-12T03:52:21.870Z,84.7
2017-08-12T03:53:23.261Z,84.9
2017-08-12T03:54:24.658Z,84.8
2017-08-12T03:55:26.055Z,84.9
2017-08-12T03:56:27.475Z,85.8
2017-08-12T03:57:28.898Z,85.1
2017-08-12T03:58:30.295Z,85.6
2017-08-12T03:59:31.693Z,85.4
2017-08-12T04:00:33.085Z,85.4
2017-08-12T04:01:34.478Z,85.3
2017-08-12T04:02:35.873Z,85.4
2017-08-12T04:03:37.270Z,85.5
2017-08-12T04:04:38.667Z,85.4
2017-08-12T04:05:40.065Z,85.7
2017-08-12T04:06:41.463Z,85.5
2017-08-12T04:07:42.856Z,86.0
2017-08-12T04:08:44.251Z,86.1
2017-08-12T04:09:45.648Z,85.4
2017-08-12T04:10:47.043Z,85.9
2017-08-12T04:11:48.535Z,85.1
2017-08-12T04:12:49.933Z,85.6
2017-08-12T04:13:51.337Z,85.4
2017-08-12T04:14:52.731Z,85.9
2017-08-12T04:15:54.126Z,85.6
2017-08-12T04:16:55.520Z,86.0
2017-08-12T04:17:56.914Z,86.0
2017-08-12T04:18:58.311Z,86.0
2017-08-12T04:19:59.747Z,86.2
2017-08-12T04:21:01.149Z,86.0
2017-08-12T04:22:02.541Z,85.9
2017-08-12T04:23:03.938Z,85.7
2017-08-12T04:24:05.333Z,85.8
2017-08-12T04:25:06.733Z,86.0
2017-08-12T04:26:08.129Z,86.0
2017-08-12T04:27:09.530Z,86.0
2017-08-12T04:28:10.929Z,85.8
2017-08-12T04:29:12.331Z,85.9
2017-08-12T04:30:13.719Z,86.0
2017-08-12T04:31:15.114Z,85.7
2017-08-12T04:32:16.513Z,85.8
2017-08-12T04:33:17.911Z,85.9
2017-08-12T04:34:19.310Z,86.4
2017-08-12T04:35:20.709Z,86.5
2017-08-12T04:36:22.105Z,86.4
2017-08-12T04:37:23.497Z,86.6
2017-08-12T04:38:24.897Z,86.3
2017-08-12T04:39:26.293Z,86.8
2017-08-12T04:40:27.687Z,86.5
2017-08-12T04:41:29.087Z,87.0
2017-08-12T04:42:30.488Z,86.7
2017-08-12T04:43:31.885Z,86.8
2017-08-12T04:44:33.279Z,86.7
2017-08-12T04:45:34.675Z,86.9
2017-08-12T04:46:36.094Z,86.9
2017-08-12T04:47:37.488Z,86.8
2017-08-12T04:48:38.898Z,86.9
2017-08-12T04:49:40.295Z,86.9
2017-08-12T04:50:41.694Z,87.0
2017-08-12T04:51:43.093Z,86.8
2017-08-12T04:52:44.492Z,87.0
2017-08-12T04:53:45.936Z,87.1
2017-08-12T04:54:47.372Z,86.9
2017-08-12T04:55:48.775Z,87.3
2017-08-12T04:56:50.179Z,87.5
2017-08-12T04:57:51.572Z,87.2
2017-08-12T04:58:52.977Z,87.0
2017-08-12T04:59:54.370Z,86.8
2017-08-12T05:00:55.770Z,86.7
2017-08-12T05:01:57.169Z,86.9
2017-08-12T05:02:58.569Z,87.0
2017-08-12T05:03:59.971Z,86.9
2017-08-12T05:05:01.369Z,86.8
2017-08-12T05:06:02.870Z,86.9
2017-08-12T05:07:04.267Z,86.8
2017-08-12T05:08:05.668Z,86.8
2017-08-12T05:09:07.127Z,86.8
2017-08-12T05:10:08.531Z,87.1
2017-08-12T05:11:09.930Z,87.2
2017-08-12T05:12:11.326Z,87.1
2017-08-12T05:13:12.727Z,87.3
2017-08-12T05:14:14.126Z,86.5
2017-08-12T05:15:15.531Z,86.8
2017-08-12T05:16:16.930Z,86.9
2017-08-12T05:17:18.335Z,86.9
2017-08-12T05:18:19.754Z,87.1
2017-08-12T05:19:21.150Z,87.2
2017-08-12T05:20:22.547Z,87.7
2017-08-12T05:21:23.945Z,87.3
2017-08-12T05:22:25.345Z,87.5
2017-08-12T05:23:26.743Z,87.3
2017-08-12T05:24:28.144Z,87.5
2017-08-12T05:25:29.547Z,87.6
2017-08-12T05:26:30.945Z,87.3
2017-08-12T05:27:32.344Z,87.6
2017-08-12T05:28:33.745Z,86.9
2017-08-12T05:29:35.143Z,87.5
2017-08-12T05:30:36.546Z,87.9
2017-08-12T05:31:37.946Z,86.9
2017-08-12T05:32:39.345Z,87.6
2017-08-12T05:33:40.743Z,87.4
2017-08-12T05:34:42.141Z,87.0
2017-08-12T05:35:43.542Z,87.7
2017-08-12T05:36:44.945Z,86.8
2017-08-12T05:37:46.360Z,86.9
2017-08-12T05:38:47.760Z,87.2
2017-08-12T05:39:49.163Z,87.5
2017-08-12T05:40:50.570Z,87.0
2017-08-12T05:41:51.964Z,87.5
2017-08-12T05:42:53.364Z,87.4
2017-08-12T05:43:54.772Z,87.7
2017-08-12T05:44:56.176Z,87.8
2017-08-12T05:45:57.581Z,87.4
2017-08-12T05:46:58.984Z,87.5
2017-08-12T05:48:00.382Z,87.7
2017-08-12T05:49:01.778Z,88.0
2017-08-12T05:50:03.177Z,88.5
2017-08-12T05:51:04.581Z,88.4
2017-08-12T05:52:05.983Z,88.6
2017-08-12T05:53:07.383Z,89.1
2017-08-12T05:54:08.783Z,88.6
2017-08-12T05:55:10.179Z,88.7
2017-08-12T05:56:11.578Z,88.4
2017-08-12T05:57:12.978Z,88.5
2017-08-12T05:58:14.380Z,89.1
2017-08-12T05:59:15.781Z,88.4
2017-08-12T06:00:17.181Z,89.3
2017-08-12T06:01:18.584Z,88.9
2017-08-12T06:02:19.984Z,89.2
2017-08-12T06:03:21.379Z,89.0
2017-08-12T06:04:22.780Z,88.4
2017-08-12T06:05:24.219Z,89.1
2017-08-12T06:06:25.621Z,88.6
2017-08-12T06:07:27.023Z,89.3
2017-08-12T06:08:28.423Z,89.2
2017-08-12T06:09:29.824Z,88.8
2017-08-12T06:10:31.220Z,89.2
2017-08-12T06:11:32.620Z,88.7
2017-08-12T06:12:34.024Z,88.8
2017-08-12T06:13:35.427Z,89.2
2017-08-12T06:14:36.827Z,88.9
2017-08-12T06:15:38.226Z,89.2
2017-08-12T06:16:39.625Z,88.9
2017-08-12T06:17:41.025Z,89.1
2017-08-12T06:18:42.424Z,88.7
2017-08-12T06:19:43.825Z,88.8
2017-08-12T06:20:45.222Z,89.4
2017-08-12T06:21:46.625Z,88.9
2017-08-12T06:22:48.027Z,88.9
2017-08-12T06:23:49.426Z,89.4
2017-08-12T06:24:50.825Z,89.6
2017-08-12T06:25:52.226Z,89.5
2017-08-12T06:26:53.624Z,89.1
2017-08-12T06:27:55.043Z,89.5
2017-08-12T06:28:58.286Z,89.2
2017-08-12T06:29:59.686Z,89.9
2017-08-12T06:31:01.086Z,90.2
2017-08-12T06:32:02.496Z,90.4
2017-08-12T06:33:03.892Z,90.3
2017-08-12T06:34:05.295Z,90.2
2017-08-12T06:35:06.691Z,91.1
2017-08-12T06:36:08.092Z,90.8
2017-08-12T06:37:09.493Z,91.1
2017-08-12T06:38:10.889Z,91.1
2017-08-12T06:39:12.290Z,92.1
2017-08-12T06:40:13.689Z,91.7
2017-08-12T06:41:15.092Z,91.8
2017-08-12T06:42:16.493Z,92.3
2017-08-12T06:43:17.893Z,92.3
2017-08-12T06:44:19.293Z,92.3
2017-08-12T06:45:20.696Z,93.1
2017-08-12T06:46:22.093Z,93.0
2017-08-12T06:47:23.494Z,93.1
2017-08-12T06:48:24.890Z,93.0
2017-08-12T06:49:26.294Z,92.9
2017-08-12T06:50:27.695Z,93.1
2017-08-12T06:51:29.094Z,93.2
2017-08-12T06:52:30.494Z,92.8
2017-08-12T06:53:31.892Z,93.1
2017-08-12T06:54:33.297Z,92.9
2017-08-12T06:55:34.699Z,94.1
2017-08-12T06:56:36.103Z,93.3
2017-08-12T06:57:37.506Z,93.6
2017-08-12T06:58:38.912Z,93.6
2017-08-12T06:59:40.317Z,93.0
2017-08-12T07:00:41.716Z,93.1
2017-08-12T07:01:43.115Z,93.1
2017-08-12T07:02:44.517Z,92.9
2017-08-12T07:03:45.922Z,93.1
2017-08-12T07:04:47.323Z,93.3
2017-08-12T07:05:48.731Z,93.1
2017-08-12T07:06:50.130Z,93.8
2017-08-12T07:07:51.538Z,93.0
2017-08-12T07:08:55.794Z,92.8
2017-08-12T07:09:57.196Z,93.1
2017-08-12T07:11:01.295Z,92.8
2017-08-12T07:12:02.701Z,92.7
2017-08-12T07:13:04.102Z,92.7
2017-08-12T07:14:05.500Z,92.1
2017-08-12T07:15:06.901Z,92.3
2017-08-12T07:16:08.302Z,91.5
2017-08-12T07:17:09.707Z,92.5
2017-08-12T07:18:11.115Z,92.3
2017-08-12T07:19:12.516Z,92.2
2017-08-12T07:20:13.926Z,91.8
2017-08-12T07:21:15.317Z,91.8
2017-08-12T07:22:16.719Z,91.6
2017-08-12T07:23:18.119Z,92.2
2017-08-12T07:24:19.520Z,92.2
2017-08-12T07:25:20.927Z,91.7
2017-08-12T07:26:22.327Z,91.0
2017-08-12T07:27:23.756Z,91.0
2017-08-12T07:28:25.157Z,90.9
2017-08-12T07:29:26.556Z,91.1
2017-08-12T07:30:27.969Z,91.8
2017-08-12T07:31:29.367Z,91.0
2017-08-12T07:32:30.765Z,91.6
2017-08-12T07:33:32.167Z,91.2
2017-08-12T07:34:33.575Z,91.0
2017-08-12T07:35:34.973Z,90.6
2017-08-12T07:36:36.374Z,90.6
2017-08-12T07:37:37.773Z,90.4
2017-08-12T07:38:39.219Z,90.6
2017-08-12T07:39:40.618Z,89.9
2017-08-12T07:40:42.021Z,90.8
2017-08-12T07:41:43.426Z,90.4
2017-08-12T07:42:44.829Z,90.7
2017-08-12T07:43:46.224Z,90.7
2017-08-12T07:44:47.627Z,89.9
2017-08-12T07:45:49.027Z,90.1
2017-08-12T07:46:50.434Z,89.9
2017-08-12T07:47:51.837Z,89.7
2017-08-12T07:48:53.240Z,89.9
2017-08-12T07:49:54.640Z,89.7
2017-08-12T07:50:56.043Z,90.5
2017-08-12T07:51:57.441Z,89.8
2017-08-12T07:52:58.842Z,89.7
2017-08-12T07:54:00.243Z,89.9
2017-08-12T07:55:01.645Z,90.0
2017-08-12T07:56:04.803Z,90.0
2017-08-12T07:57:06.204Z,89.9
2017-08-12T07:58:07.605Z,90.1
2017-08-12T07:59:09.011Z,89.9
2017-08-12T08:00:10.413Z,90.1
2017-08-12T08:01:11.816Z,89.8
2017-08-12T08:02:13.221Z,89.2
2017-08-12T08:04:17.511Z,90.3
2017-08-12T08:05:18.945Z,89.9
2017-08-12T08:06:28.914Z,90.6
2017-08-12T08:07:30.332Z,90.4
2017-08-12T08:08:34.583Z,90.7
2017-08-12T08:09:36.013Z,90.9
2017-08-12T08:11:17.894Z,91.0
2017-08-12T08:12:19.292Z,89.9
2017-08-12T08:13:40.795Z,90.8
2017-08-12T08:45:41.154Z,92.0
2017-08-12T08:46:42.732Z,91.0
2017-08-12T08:48:05.226Z,91.6
2017-08-12T08:49:06.624Z,91.6
2017-08-12T08:50:29.141Z,91.1
2017-08-12T08:51:30.541Z,90.9
2017-08-12T08:52:53.115Z,91.2
2017-08-12T08:53:54.519Z,90.7
2017-08-12T08:55:17.029Z,91.3
2017-08-12T08:56:18.427Z,91.3
2017-08-12T08:57:41.569Z,89.8
2017-08-12T08:58:42.975Z,90.5
2017-08-12T08:59:44.425Z,90.6
2017-08-12T09:00:45.864Z,90.3
2017-08-12T09:01:48.232Z,89.7
2017-08-12T09:02:49.668Z,90.0
2017-08-12T09:03:51.146Z,90.1
2017-08-12T09:04:52.551Z,89.9
2017-08-12T09:05:53.953Z,90.0
2017-08-12T09:06:55.350Z,90.2
2017-08-12T09:07:56.750Z,90.0
2017-08-12T09:08:58.152Z,89.8
2017-08-12T09:09:59.553Z,89.8
2017-08-12T09:11:02.123Z,89.6
2017-08-12T09:12:03.531Z,89.5
2017-08-12T09:13:04.933Z,89.3
2017-08-12T09:14:06.335Z,89.2
2017-08-12T09:15:07.736Z,89.0
2017-08-12T09:16:09.139Z,89.4
2017-08-12T09:17:10.541Z,89.5
2017-08-12T09:18:11.946Z,89.2
2017-08-12T09:19:13.613Z,88.8
2017-08-12T09:20:15.013Z,89.1
2017-08-12T09:21:16.416Z,87.5
2017-08-12T09:22:17.818Z,88.5
2017-08-12T09:23:19.231Z,88.5
2017-08-12T09:24:20.632Z,88.1
2017-08-12T09:25:22.033Z,87.7
2017-08-12T09:26:23.438Z,88.2
2017-08-12T09:27:24.839Z,87.8
2017-08-12T09:28:26.240Z,87.4
2017-08-12T09:29:27.641Z,87.8
2017-08-12T09:30:29.046Z,87.4
2017-08-12T09:31:30.451Z,87.5
2017-08-12T09:32:31.853Z,87.6
2017-08-12T09:33:33.259Z,87.1
2017-08-12T09:34:34.657Z,87.4
2017-08-12T09:35:36.058Z,88.8
2017-08-12T09:36:37.460Z,89.7
2017-08-12T09:37:38.857Z,89.4
2017-08-12T09:38:40.262Z,89.2
2017-08-12T09:39:41.667Z,90.5
2017-08-12T09:40:43.072Z,90.7
2017-08-12T09:41:44.475Z,90.1
2017-08-12T09:42:45.877Z,90.2
2017-08-12T09:43:47.274Z,89.7
2017-08-12T09:44:48.676Z,89.6
2017-08-12T09:45:50.078Z,89.5
2017-08-12T09:46:51.481Z,89.5
2017-08-12T09:47:52.886Z,89.7
2017-08-12T09:48:54.280Z,89.6
2017-08-12T09:49:55.688Z,89.9
2017-08-12T09:50:57.130Z,90.0
2017-08-12T09:51:58.534Z,88.9
2017-08-12T09:52:59.936Z,88.0
2017-08-12T09:54:01.341Z,87.7
2017-08-12T09:55:02.745Z,87.0
2017-08-12T09:56:04.145Z,87.0
2017-08-12T09:57:05.548Z,87.2
2017-08-12T09:58:06.950Z,87.6
2017-08-12T09:59:08.408Z,88.0
2017-08-12T10:00:09.818Z,87.8
2017-08-12T10:01:11.222Z,87.4
2017-08-12T10:02:12.629Z,87.4
2017-08-12T10:03:14.061Z,87.1
2017-08-12T10:04:15.461Z,87.6
2017-08-12T10:05:16.866Z,87.3
2017-08-12T10:06:18.269Z,87.2
2017-08-12T10:07:19.722Z,87.4
2017-08-12T10:08:21.125Z,87.0
2017-08-12T10:09:22.535Z,87.3
2017-08-12T10:10:23.936Z,86.4
2017-08-12T10:11:25.334Z,86.9
2017-08-12T10:12:26.733Z,87.3
2017-08-12T10:13:28.143Z,87.3
2017-08-12T10:14:29.549Z,87.2
2017-08-12T10:15:30.949Z,87.2
2017-08-12T10:16:32.510Z,86.3
2017-08-12T10:17:33.910Z,86.2
2017-08-12T10:18:35.314Z,86.0
2017-08-12T10:19:36.713Z,85.8
2017-08-12T10:20:38.119Z,86.0
2017-08-12T10:21:39.520Z,86.6
2017-08-12T10:22:40.923Z,86.6
2017-08-12T10:23:42.328Z,86.1
2017-08-12T10:24:43.731Z,86.4
2017-08-12T10:25:45.134Z,86.1
2017-08-12T10:26:46.534Z,86.3
2017-08-12T10:27:47.937Z,86.1
2017-08-12T10:28:49.577Z,86.1
2017-08-12T10:29:51.033Z,86.6
2017-08-12T10:30:52.435Z,87.3
2017-08-12T10:31:53.838Z,87.3
2017-08-12T10:32:55.247Z,86.9
2017-08-12T10:33:56.650Z,86.5
2017-08-12T10:34:58.053Z,87.0
2017-08-12T10:35:59.457Z,87.2
2017-08-12T10:37:00.885Z,86.0
2017-08-12T10:38:02.288Z,85.7
2017-08-12T10:39:03.756Z,86.4
2017-08-12T10:40:05.164Z,86.5
2017-08-12T10:41:06.569Z,86.4
2017-08-12T10:42:07.971Z,86.3
2017-08-12T10:43:09.416Z,86.6
2017-08-12T10:44:10.824Z,86.6
2017-08-12T10:45:12.228Z,85.5
2017-08-12T10:46:13.640Z,86.2
2017-08-12T10:47:15.035Z,86.0
2017-08-12T10:48:16.440Z,85.3
2017-08-12T10:49:17.843Z,86.0
2017-08-12T10:50:19.246Z,84.5
2017-08-12T10:51:20.651Z,84.9
2017-08-12T10:52:22.057Z,84.7
2017-08-12T10:53:23.458Z,85.9
2017-08-12T10:54:24.856Z,85.8
2017-08-12T10:55:26.262Z,85.9
2017-08-12T10:56:27.662Z,86.1
2017-08-12T10:57:29.068Z,86.1
2017-08-12T10:58:30.474Z,85.8
2017-08-12T10:59:31.878Z,86.1
2017-08-12T11:00:33.279Z,85.7
2017-08-12T11:01:34.681Z,86.2
2017-08-12T11:02:36.084Z,86.3
2017-08-12T11:03:37.483Z,86.7
2017-08-12T11:04:38.888Z,86.2
2017-08-12T11:05:40.293Z,86.5
2017-08-12T11:06:41.698Z,86.1
2017-08-12T11:07:43.101Z,86.1
2017-08-12T11:08:44.500Z,86.1
2017-08-12T11:09:45.904Z,86.0
2017-08-12T11:10:47.307Z,86.5
2017-08-12T11:11:48.819Z,86.0
2017-08-12T11:12:50.222Z,85.9
2017-08-12T11:13:51.626Z,85.7
2017-08-12T11:14:53.028Z,86.2
2017-08-12T11:15:54.438Z,86.2
2017-08-12T11:16:55.830Z,86.6
2017-08-12T11:17:57.233Z,86.4
2017-08-12T11:18:58.637Z,85.9
2017-08-12T11:20:00.042Z,86.3
2017-08-12T11:21:01.445Z,86.5
2017-08-12T11:22:02.969Z,86.4
2017-08-12T11:23:04.372Z,86.2
2017-08-12T11:24:05.773Z,86.4
2017-08-12T11:25:07.176Z,86.2
2017-08-12T11:26:08.578Z,85.8
2017-08-12T11:27:09.982Z,85.3
2017-08-12T11:28:11.388Z,85.7
2017-08-12T11:29:12.827Z,86.0
2017-08-12T11:30:14.230Z,85.9
2017-08-12T11:31:15.633Z,85.2
2017-08-12T11:32:17.037Z,84.7
2017-08-12T11:33:18.451Z,84.8
2017-08-12T11:34:19.848Z,84.5
2017-08-12T11:35:21.255Z,84.4
2017-08-12T11:36:22.659Z,85.0
2017-08-12T11:37:24.078Z,85.5
2017-08-12T11:38:25.480Z,85.4
2017-08-12T11:39:26.882Z,84.8
2017-08-12T11:40:28.286Z,85.1
2017-08-12T11:41:29.690Z,85.4
2017-08-12T11:42:31.097Z,85.7
2017-08-12T11:43:32.496Z,85.8
2017-08-12T11:44:33.899Z,86.1
2017-08-12T11:45:35.304Z,86.6
2017-08-12T11:46:36.717Z,86.4
2017-08-12T11:47:38.119Z,86.4
2017-08-12T11:48:39.524Z,86.1
2017-08-12T11:49:40.930Z,86.3
2017-08-12T11:50:42.332Z,86.5
2017-08-12T11:51:43.733Z,86.0
2017-08-12T11:52:45.138Z,86.4
2017-08-12T11:53:46.539Z,86.6
2017-08-12T11:54:47.944Z,86.8
2017-08-12T11:55:49.349Z,86.7
2017-08-12T11:56:50.754Z,87.3
2017-08-12T11:57:52.154Z,86.7
2017-08-12T11:58:53.556Z,87.0
2017-08-12T11:59:54.961Z,87.2
2017-08-12T21:37:41.208Z,97.5
2017-08-12T21:38:42.615Z,97.4
2017-08-12T21:40:05.101Z,97.5
2017-08-12T21:41:06.500Z,98.0
2017-08-12T21:42:28.075Z,97.4
2017-08-12T21:43:29.494Z,97.6
2017-08-12T21:44:30.891Z,97.5
2017-08-12T21:45:32.288Z,97.2
2017-08-12T21:46:33.685Z,97.8
2017-08-12T21:47:35.081Z,97.5
2017-08-12T21:48:36.477Z,97.5
2017-08-12T21:49:37.874Z,97.4
2017-08-12T21:50:39.266Z,97.2
2017-08-12T21:51:40.660Z,97.5
2017-08-12T21:52:42.062Z,97.7
2017-08-12T21:53:43.453Z,97.6
2017-08-12T21:54:44.854Z,97.6
2017-08-12T21:55:46.248Z,97.3
2017-08-12T21:56:47.645Z,97.4
2017-08-12T21:57:49.041Z,97.5
2017-08-12T21:58:50.435Z,97.7
2017-08-12T21:59:51.830Z,97.5
2017-08-12T22:00:53.229Z,97.7
2017-08-12T22:01:54.630Z,97.8
2017-08-12T22:02:56.027Z,97.4
2017-08-12T22:03:57.424Z,97.3
2017-08-12T22:04:58.835Z,97.3
2017-08-12T22:06:00.216Z,97.9
2017-08-12T22:07:01.614Z,97.7
2017-08-12T22:08:03.011Z,97.7
2017-08-12T22:09:04.406Z,97.8
2017-08-12T22:10:05.807Z,97.9
2017-08-12T22:11:07.205Z,97.7
2017-08-12T22:12:08.603Z,97.9
2017-08-12T22:13:09.996Z,97.9
2017-08-12T22:14:11.397Z,97.3
2017-08-12T22:15:12.793Z,97.6
2017-08-12T22:16:14.195Z,97.6
2017-08-12T22:17:15.591Z,97.1
2017-08-12T22:18:16.990Z,97.4
2017-08-12T22:19:18.386Z,97.6
2017-08-12T22:20:19.781Z,97.2
2017-08-12T22:21:21.179Z,97.6
2017-08-12T22:22:22.576Z,97.3
2017-08-12T22:23:23.972Z,97.6
2017-08-12T22:24:25.375Z,97.4
2017-08-12T22:25:26.775Z,97.5
2017-08-12T22:26:28.178Z,97.4
2017-08-12T22:27:29.606Z,97.1
2017-08-12T22:28:31.004Z,97.7
2017-08-12T22:29:32.398Z,97.3
2017-08-12T22:30:33.797Z,96.7
2017-08-12T22:31:35.197Z,97.3
2017-08-12T22:32:36.601Z,97.1
2017-08-12T22:33:37.999Z,96.8
2017-08-12T22:34:39.391Z,96.8
2017-08-12T22:35:40.791Z,96.8
2017-08-12T22:36:42.188Z,97.0
2017-08-12T22:37:43.586Z,97.3
2017-08-12T22:38:44.985Z,97.3
2017-08-12T22:39:46.406Z,96.9
2017-08-12T22:40:47.783Z,96.9
2017-08-12T22:41:49.180Z,97.0
2017-08-12T22:42:50.576Z,96.7
2017-08-12T22:43:51.973Z,96.8
2017-08-12T22:44:53.371Z,97.0
2017-08-12T22:45:54.768Z,97.0
2017-08-12T22:46:56.166Z,97.1
2017-08-12T22:47:57.560Z,97.0
2017-08-12T22:48:58.958Z,96.9
2017-08-12T22:50:00.354Z,97.3
2017-08-12T22:51:01.751Z,97.4
2017-08-12T22:52:03.157Z,97.9
2017-08-12T22:53:04.545Z,97.3
2017-08-12T22:54:05.945Z,97.6
2017-08-12T22:55:07.339Z,97.3
2017-08-12T22:56:08.734Z,97.4
2017-08-12T22:57:10.133Z,97.4
2017-08-12T22:58:11.527Z,97.8
2017-08-12T22:59:12.929Z,97.6
2017-08-12T23:00:14.320Z,97.9
2017-08-12T23:01:15.717Z,97.3
2017-08-12T23:02:17.115Z,97.0
2017-08-12T23:03:18.509Z,97.0
2017-08-12T23:04:19.904Z,97.3
2017-08-12T23:05:21.319Z,97.9
2017-08-12T23:06:22.718Z,97.6
2017-08-12T23:07:24.117Z,97.4
2017-08-12T23:08:25.515Z,98.1
2017-08-12T23:09:26.912Z,98.0
2017-08-12T23:10:28.316Z,97.9
2017-08-12T23:11:29.711Z,98.1
2017-08-12T23:12:31.104Z,98.1
2017-08-12T23:13:32.502Z,97.7
2017-08-12T23:14:33.903Z,97.9
2017-08-12T23:15:35.303Z,97.7
2017-08-12T23:16:36.694Z,97.8
2017-08-12T23:17:38.090Z,97.8
2017-08-12T23:18:39.487Z,97.7
2017-08-12T23:19:40.883Z,98.0
2017-08-12T23:20:42.277Z,98.0
2017-08-12T23:21:43.684Z,97.9
2017-08-12T23:22:45.080Z,97.9
2017-08-12T23:23:46.477Z,97.8
2017-08-12T23:24:47.870Z,97.9
2017-08-12T23:25:49.263Z,97.8
2017-08-12T23:26:50.661Z,97.7
2017-08-12T23:27:52.058Z,98.0
2017-08-12T23:28:53.456Z,97.8
2017-08-12T23:29:54.856Z,97.9
2017-08-12T23:30:56.253Z,97.9
2017-08-12T23:31:57.648Z,97.9
2017-08-12T23:32:59.044Z,97.9
2017-08-12T23:34:00.441Z,97.9
2017-08-12T23:35:01.838Z,97.6
2017-08-12T23:36:03.240Z,97.9
2017-08-12T23:37:04.640Z,97.7
2017-08-12T23:38:06.035Z,97.7
2017-08-12T23:39:07.429Z,97.8
2017-08-12T23:40:08.825Z,97.8
2017-08-12T23:41:10.221Z,97.9
2017-08-12T23:42:11.620Z,97.8
2017-08-12T23:43:13.022Z,97.8
2017-08-12T23:44:14.420Z,97.9
2017-08-12T23:45:15.813Z,97.6
2017-08-12T23:46:17.211Z,97.9
2017-08-12T23:47:18.608Z,97.7
2017-08-12T23:48:20.003Z,97.7
2017-08-12T23:49:21.402Z,97.5
2017-08-12T23:50:22.801Z,98.3